createdAt,value
2018-09-17T00:00:51.403Z,0
2018-09-17T00:02:01.278Z,0
2018-09-17T00:03:11.133Z,0
2018-09-17T00:04:20.710Z,0
2018-09-17T00:05:30.617Z,0
2018-09-17T00:06:40.475Z,0
2018-09-17T00:07:50.326Z,0
2018-09-17T00:09:00.185Z,0
2018-09-17T00:10:09.764Z,0
2018-09-17T00:11:19.892Z,0
2018-09-17T00:12:29.482Z,0
2018-09-17T00:13:39.064Z,0
2018-09-17T00:14:48.924Z,0
2018-09-17T00:15:58.775Z,0
2018-09-17T00:17:08.678Z,0
2018-09-17T00:18:18.806Z,0
2018-09-17T00:19:28.931Z,0
2018-09-17T00:20:38.782Z,0
2018-09-17T00:21:48.911Z,0
2018-09-17T00:22:59.154Z,0
2018-09-17T00:24:08.460Z,0
2018-09-17T00:25:18.599Z,0
2018-09-17T00:26:28.739Z,0
2018-09-17T00:27:38.867Z,0
2018-09-17T00:28:48.768Z,0
2018-09-17T00:29:58.897Z,0
2018-09-17T00:31:09.021Z,0
2018-09-17T00:32:19.159Z,0
2018-09-17T00:33:29.009Z,0
2018-09-17T00:34:38.857Z,0
2018-09-17T00:35:48.990Z,0
2018-09-17T00:36:58.568Z,0
2018-09-17T00:38:08.423Z,0
2018-09-17T00:39:18.273Z,0
2018-09-17T00:40:28.403Z,0
2018-09-17T00:41:38.255Z,0
2018-09-17T00:42:48.382Z,0
2018-09-17T00:43:58.571Z,0
2018-09-17T00:45:08.157Z,0
2018-09-17T00:46:18.012Z,0
2018-09-17T00:47:28.134Z,0
2018-09-17T00:48:37.984Z,0
2018-09-17T00:49:48.115Z,0
2018-09-17T00:50:58.243Z,0
2018-09-17T00:52:08.376Z,0
2018-09-17T00:53:18.225Z,0
2018-09-17T00:54:27.842Z,0
2018-09-17T00:55:37.389Z,0
2018-09-17T00:56:47.519Z,0
2018-09-17T00:57:58.061Z,0
2018-09-17T00:59:08.398Z,0
2018-09-17T01:00:18.533Z,0
2018-09-17T01:01:28.667Z,0
2018-09-17T01:02:38.244Z,0
2018-09-17T01:03:48.422Z,0
2018-09-17T01:04:58.319Z,0
2018-09-17T01:06:07.954Z,0
2018-09-17T01:07:17.809Z,0
2018-09-17T01:08:27.666Z,0
2018-09-17T01:09:37.520Z,0
2018-09-17T01:10:47.649Z,0
2018-09-17T01:11:57.522Z,0
2018-09-17T01:13:07.379Z,0
2018-09-17T01:14:17.509Z,0
2018-09-17T01:15:27.646Z,0
2018-09-17T01:16:37.786Z,0
2018-09-17T01:17:47.644Z,0
2018-09-17T01:18:57.499Z,0
2018-09-17T01:20:07.350Z,0
2018-09-17T01:21:17.250Z,0
2018-09-17T01:22:27.105Z,0
2018-09-17T01:23:37.232Z,0
2018-09-17T01:24:47.091Z,0
2018-09-17T01:25:56.952Z,0
2018-09-17T01:27:06.801Z,0
2018-09-17T01:28:16.934Z,0
2018-09-17T01:29:26.510Z,0
2018-09-17T01:30:36.304Z,0
2018-09-17T01:31:46.764Z,0
2018-09-17T01:32:56.673Z,0
2018-09-17T01:34:06.817Z,0
2018-09-17T01:35:16.947Z,0
2018-09-17T01:36:26.807Z,0
2018-09-17T01:37:36.396Z,0
2018-09-17T01:38:46.590Z,0
2018-09-17T01:39:56.716Z,0
2018-09-17T01:41:06.299Z,0
2018-09-17T01:42:16.427Z,0
2018-09-17T01:43:26.289Z,0
2018-09-17T01:44:36.417Z,0
2018-09-17T01:45:46.542Z,0
2018-09-17T01:46:56.677Z,0
2018-09-17T01:48:06.586Z,0
2018-09-17T01:49:16.715Z,0
2018-09-17T01:50:26.570Z,0
2018-09-17T01:51:36.425Z,0
2018-09-17T01:52:46.558Z,0
2018-09-17T01:53:56.684Z,0
2018-09-17T01:55:06.541Z,0
2018-09-17T01:56:16.125Z,0
2018-09-17T01:57:25.985Z,0
2018-09-17T01:58:36.113Z,0
2018-09-17T01:59:46.239Z,0
2018-09-17T02:00:56.372Z,0
2018-09-17T02:02:05.726Z,0
2018-09-17T02:03:15.590Z,0
2018-09-17T02:04:25.454Z,0
2018-09-17T02:05:35.579Z,0
2018-09-17T02:06:45.707Z,0
2018-09-17T02:07:55.834Z,0
2018-09-17T02:09:05.855Z,0
2018-09-17T02:10:15.845Z,0
2018-09-17T02:11:25.979Z,0
2018-09-17T02:12:35.827Z,0
2018-09-17T02:13:45.954Z,0
2018-09-17T02:14:56.086Z,0
2018-09-17T02:16:06.220Z,0
2018-09-17T02:17:15.812Z,0
2018-09-17T02:18:25.668Z,0
2018-09-17T02:19:35.580Z,0
2018-09-17T02:20:45.715Z,0
2018-09-17T02:21:55.845Z,0
2018-09-17T02:23:05.696Z,0
2018-09-17T02:24:15.836Z,0
2018-09-17T02:25:25.696Z,0
2018-09-17T02:26:35.832Z,0
2018-09-17T02:27:45.966Z,0
2018-09-17T02:28:55.274Z,0
2018-09-17T02:30:05.139Z,0
2018-09-17T02:31:15.046Z,0
2018-09-17T02:32:25.187Z,0
2018-09-17T02:33:35.051Z,0
2018-09-17T02:34:44.632Z,0
2018-09-17T02:35:54.494Z,0
2018-09-17T02:37:04.671Z,0
2018-09-17T02:38:14.529Z,0
2018-09-17T02:39:24.455Z,0
2018-09-17T02:40:34.310Z,0
2018-09-17T02:41:44.445Z,0
2018-09-17T02:42:54.586Z,0
2018-09-17T02:44:04.448Z,0
2018-09-17T02:45:14.641Z,0
2018-09-17T02:46:23.946Z,0
2018-09-17T02:47:34.102Z,0
2018-09-17T02:48:44.230Z,0
2018-09-17T02:49:53.808Z,0
2018-09-17T02:51:03.673Z,0
2018-09-17T02:52:13.321Z,0
2018-09-17T02:53:23.544Z,0
2018-09-17T02:54:33.529Z,0
2018-09-17T02:55:43.659Z,0
2018-09-17T02:56:53.511Z,0
2018-09-17T02:58:03.092Z,0
2018-09-17T02:59:13.222Z,0
2018-09-17T03:00:23.141Z,0
2018-09-17T03:01:33.288Z,0
2018-09-17T03:02:43.141Z,0
2018-09-17T03:03:53.271Z,0
2018-09-17T03:05:03.400Z,0
2018-09-17T03:06:13.532Z,0
2018-09-17T03:07:23.658Z,0
2018-09-17T03:08:33.784Z,0
2018-09-17T03:09:43.671Z,0
2018-09-17T03:10:53.533Z,0
2018-09-17T03:12:03.659Z,0
2018-09-17T03:13:13.240Z,0
2018-09-17T03:14:23.370Z,0
2018-09-17T03:15:33.253Z,0
2018-09-17T03:16:42.838Z,0
2018-09-17T03:17:53.013Z,0
2018-09-17T03:19:02.866Z,0
2018-09-17T03:20:12.448Z,0
2018-09-17T03:21:22.585Z,0
2018-09-17T03:22:32.444Z,0
2018-09-17T03:23:42.363Z,0
2018-09-17T03:24:52.226Z,0
2018-09-17T03:26:01.531Z,0
2018-09-17T03:27:11.383Z,0
2018-09-17T03:28:21.512Z,0
2018-09-17T03:29:31.418Z,0
2018-09-17T03:30:41.006Z,0
2018-09-17T03:31:51.186Z,0
2018-09-17T03:33:01.042Z,0
2018-09-17T03:34:11.180Z,0
2018-09-17T03:35:21.103Z,0
2018-09-17T03:36:31.237Z,0
2018-09-17T03:37:41.377Z,0
2018-09-17T03:38:51.535Z,0
2018-09-17T03:40:01.669Z,0
2018-09-17T03:41:10.982Z,0
2018-09-17T03:42:20.567Z,0
2018-09-17T03:43:29.872Z,0
2018-09-17T03:44:39.457Z,0
2018-09-17T03:45:49.312Z,0
2018-09-17T03:46:59.637Z,0
2018-09-17T03:48:09.497Z,0
2018-09-17T03:49:19.406Z,0
2018-09-17T03:50:29.540Z,0
2018-09-17T03:51:39.394Z,0
2018-09-17T03:52:49.253Z,0
2018-09-17T03:53:59.100Z,0
2018-09-17T03:55:08.679Z,0
2018-09-17T03:56:18.808Z,0
2018-09-17T03:57:28.943Z,0
2018-09-17T03:58:38.849Z,0
2018-09-17T03:59:48.986Z,0
2018-09-17T04:00:58.840Z,0
2018-09-17T04:02:08.700Z,0
2018-09-17T04:03:18.559Z,0
2018-09-17T04:04:28.246Z,0
2018-09-17T04:05:38.377Z,0
2018-09-17T04:06:48.248Z,0
2018-09-17T04:07:58.380Z,0
2018-09-17T04:09:08.506Z,0
2018-09-17T04:10:18.760Z,0
2018-09-17T04:11:28.615Z,0
2018-09-17T04:12:38.741Z,0
2018-09-17T04:13:48.602Z,4
2018-09-17T04:14:58.185Z,4
2018-09-17T04:16:08.322Z,0
2018-09-17T04:17:18.175Z,4
2018-09-17T04:18:28.316Z,8
2018-09-17T04:19:38.442Z,4
2018-09-17T04:20:48.293Z,4
2018-09-17T04:21:58.163Z,8
2018-09-17T04:23:08.016Z,8
2018-09-17T04:24:17.875Z,12
2018-09-17T04:25:27.727Z,12
2018-09-17T04:26:37.865Z,16
2018-09-17T04:27:47.458Z,16
2018-09-17T04:28:57.600Z,24
2018-09-17T04:30:07.181Z,24
2018-09-17T04:31:17.035Z,28
2018-09-17T04:32:26.892Z,32
2018-09-17T04:33:37.080Z,40
2018-09-17T04:34:46.936Z,44
2018-09-17T04:35:56.789Z,52
2018-09-17T04:37:06.369Z,56
2018-09-17T04:38:15.955Z,68
2018-09-17T04:39:25.583Z,72
2018-09-17T04:40:35.717Z,84
2018-09-17T04:41:45.883Z,96
2018-09-17T04:42:55.741Z,108
2018-09-17T04:44:05.874Z,124
2018-09-17T04:45:15.782Z,136
2018-09-17T04:46:25.920Z,148
2018-09-17T04:47:35.779Z,164
2018-09-17T04:48:45.919Z,176
2018-09-17T04:49:55.503Z,192
2018-09-17T04:51:05.425Z,204
2018-09-17T04:52:15.278Z,220
2018-09-17T04:53:25.400Z,240
2018-09-17T04:54:34.983Z,268
2018-09-17T04:55:45.111Z,296
2018-09-17T04:56:55.293Z,328
2018-09-17T04:58:05.141Z,360
2018-09-17T04:59:15.000Z,400
2018-09-17T05:00:25.139Z,428
2018-09-17T05:01:35.314Z,456
2018-09-17T05:02:45.450Z,492
2018-09-17T05:03:55.304Z,536
2018-09-17T05:05:05.431Z,576
2018-09-17T05:06:15.553Z,620
2018-09-17T05:07:26.324Z,672
2018-09-17T05:08:36.270Z,724
2018-09-17T05:09:46.122Z,768
2018-09-17T05:10:56.256Z,812
2018-09-17T05:12:06.387Z,856
2018-09-17T05:13:17.065Z,904
2018-09-17T05:14:27.636Z,944
2018-09-17T05:15:37.776Z,972
2018-09-17T05:16:47.629Z,1000
2018-09-17T05:17:57.766Z,1024
2018-09-17T05:19:07.893Z,1036
2018-09-17T05:20:17.242Z,1040
2018-09-17T05:21:26.820Z,1028
2018-09-17T05:22:36.680Z,1084
2018-09-17T05:23:46.534Z,1164
2018-09-17T05:24:56.394Z,1216
2018-09-17T05:26:06.024Z,1248
2018-09-17T05:27:16.150Z,1280
2018-09-17T05:28:26.325Z,1316
2018-09-17T05:29:36.221Z,1348
2018-09-17T05:30:46.081Z,1384
2018-09-17T05:31:56.258Z,1420
2018-09-17T05:33:06.111Z,1448
2018-09-17T05:34:16.237Z,1480
2018-09-17T05:35:26.085Z,1504
2018-09-17T05:36:36.225Z,1536
2018-09-17T05:37:46.408Z,1568
2018-09-17T05:38:56.536Z,1592
2018-09-17T05:40:06.388Z,1624
2018-09-17T05:41:16.517Z,1664
2018-09-17T05:42:26.371Z,1704
2018-09-17T05:43:36.501Z,1736
2018-09-17T05:44:46.629Z,1776
2018-09-17T05:45:56.756Z,1808
2018-09-17T05:47:06.622Z,1836
2018-09-17T05:48:16.467Z,1868
2018-09-17T05:49:26.319Z,1916
2018-09-17T05:50:36.169Z,1968
2018-09-17T05:51:46.030Z,2032
2018-09-17T05:52:56.158Z,2112
2018-09-17T05:54:06.304Z,2208
2018-09-17T05:55:16.158Z,2312
2018-09-17T05:56:26.007Z,2388
2018-09-17T05:57:35.863Z,2440
2018-09-17T05:58:45.720Z,2468
2018-09-17T05:59:55.295Z,2496
2018-09-17T06:01:05.202Z,2540
2018-09-17T06:02:15.335Z,2544
2018-09-17T06:03:25.187Z,2548
2018-09-17T06:04:35.319Z,2536
2018-09-17T06:05:45.995Z,2540
2018-09-17T06:06:56.192Z,2560
2018-09-17T06:08:06.235Z,2576
2018-09-17T06:09:16.093Z,2632
2018-09-17T06:10:26.218Z,2704
2018-09-17T06:11:36.353Z,2728
2018-09-17T06:12:46.602Z,2780
2018-09-17T06:13:56.177Z,2824
2018-09-17T06:15:06.032Z,2844
2018-09-17T06:16:15.891Z,2836
2018-09-17T06:17:25.988Z,2884
2018-09-17T06:18:36.306Z,2980
2018-09-17T06:19:46.436Z,3104
2018-09-17T06:20:56.558Z,3168
2018-09-17T06:22:06.134Z,3260
2018-09-17T06:23:16.592Z,3388
2018-09-17T06:24:26.258Z,3400
2018-09-17T06:25:35.831Z,3432
2018-09-17T06:26:46.008Z,3464
2018-09-17T06:27:56.147Z,3536
2018-09-17T06:29:06.318Z,3616
2018-09-17T06:30:16.221Z,3704
2018-09-17T06:31:26.348Z,3852
2018-09-17T06:32:36.471Z,3848
2018-09-17T06:33:46.320Z,3800
2018-09-17T06:34:56.015Z,3852
2018-09-17T06:36:05.738Z,3952
2018-09-17T06:37:15.931Z,3940
2018-09-17T06:38:25.231Z,4068
2018-09-17T06:39:35.094Z,4208
2018-09-17T06:40:45.217Z,4276
2018-09-17T06:41:55.393Z,4292
2018-09-17T06:43:05.040Z,4436
2018-09-17T06:44:15.165Z,4492
2018-09-17T06:45:24.473Z,4476
2018-09-17T06:46:34.329Z,4468
2018-09-17T06:47:43.952Z,4528
2018-09-17T06:48:53.814Z,4572
2018-09-17T06:50:03.665Z,4604
2018-09-17T06:51:13.234Z,4604
2018-09-17T06:52:23.089Z,4636
2018-09-17T06:53:33.273Z,4700
2018-09-17T06:54:43.247Z,4692
2018-09-17T06:55:53.376Z,4680
2018-09-17T06:57:03.538Z,4688
2018-09-17T06:58:13.076Z,4692
2018-09-17T06:59:22.979Z,4752
2018-09-17T07:00:32.557Z,4784
2018-09-17T07:01:42.684Z,4788
2018-09-17T07:02:51.986Z,4848
2018-09-17T07:04:02.113Z,4888
2018-09-17T07:05:12.021Z,4960
2018-09-17T07:06:22.396Z,5096
2018-09-17T07:07:32.518Z,5100
2018-09-17T07:08:42.643Z,5048
2018-09-17T07:09:52.768Z,5032
2018-09-17T07:11:02.939Z,5044
2018-09-17T07:12:12.793Z,5092
2018-09-17T07:13:22.642Z,5104
2018-09-17T07:14:32.219Z,5068
2018-09-17T07:15:42.339Z,5028
2018-09-17T07:16:52.276Z,4996
2018-09-17T07:18:02.276Z,5008
2018-09-17T07:19:11.804Z,5080
2018-09-17T07:20:21.654Z,5024
2018-09-17T07:21:31.778Z,4900
2018-09-17T07:22:41.408Z,4864
2018-09-17T07:23:51.287Z,4776
2018-09-17T07:25:01.417Z,4852
2018-09-17T07:26:10.995Z,5048
2018-09-17T07:27:21.118Z,5156
2018-09-17T07:28:30.747Z,5252
2018-09-17T07:29:40.597Z,5280
2018-09-17T07:30:50.447Z,5300
2018-09-17T07:32:00.566Z,5448
2018-09-17T07:33:10.419Z,5636
2018-09-17T07:34:20.321Z,5720
2018-09-17T07:35:30.466Z,5624
2018-09-17T07:36:40.730Z,5680
2018-09-17T07:37:50.923Z,5808
2018-09-17T07:39:00.783Z,5800
2018-09-17T07:40:10.737Z,5664
2018-09-17T07:41:20.586Z,5732
2018-09-17T07:42:30.447Z,5956
2018-09-17T07:43:40.301Z,6000
2018-09-17T07:44:50.443Z,6308
2018-09-17T07:46:00.617Z,6592
2018-09-17T07:47:10.744Z,6568
2018-09-17T07:48:20.871Z,6564
2018-09-17T07:49:30.726Z,6784
2018-09-17T07:50:40.850Z,6560
2018-09-17T07:51:51.022Z,6716
2018-09-17T07:53:00.811Z,6704
2018-09-17T07:54:10.670Z,6692
2018-09-17T07:55:20.799Z,6760
2018-09-17T07:56:30.372Z,6872
2018-09-17T07:57:39.722Z,6920
2018-09-17T07:58:49.952Z,7040
2018-09-17T08:00:00.127Z,7100
2018-09-17T08:01:09.982Z,6900
2018-09-17T08:02:19.836Z,6696
2018-09-17T08:03:29.793Z,6724
2018-09-17T08:04:39.921Z,6648
2018-09-17T08:05:50.539Z,6580
2018-09-17T08:07:00.403Z,6664
2018-09-17T08:08:10.272Z,6700
2018-09-17T08:09:21.035Z,6752
2018-09-17T08:10:30.614Z,7012
2018-09-17T08:11:40.739Z,7180
2018-09-17T08:12:50.859Z,7516
2018-09-17T08:14:00.985Z,7516
2018-09-17T08:15:11.160Z,7560
2018-09-17T08:16:20.736Z,7464
2018-09-17T08:17:30.589Z,7452
2018-09-17T08:18:40.444Z,7420
2018-09-17T08:19:50.632Z,7560
2018-09-17T08:21:00.765Z,7636
2018-09-17T08:22:10.896Z,7768
2018-09-17T08:23:20.473Z,7540
2018-09-17T08:24:30.778Z,7604
2018-09-17T08:25:41.360Z,7996
2018-09-17T08:26:51.215Z,8028
2018-09-17T08:28:01.063Z,8192
2018-09-17T08:29:10.649Z,8192
2018-09-17T08:30:20.513Z,8124
2018-09-17T08:31:30.049Z,8124
2018-09-17T08:32:39.896Z,8128
2018-09-17T08:33:49.746Z,8084
2018-09-17T08:34:59.881Z,8104
2018-09-17T08:36:09.745Z,8284
2018-09-17T08:37:19.359Z,8248
2018-09-17T08:38:29.227Z,8096
2018-09-17T08:39:39.079Z,7920
2018-09-17T08:40:48.934Z,7596
2018-09-17T08:41:59.064Z,7320
2018-09-17T08:43:08.643Z,7496
2018-09-17T08:44:18.497Z,8156
2018-09-17T08:45:28.135Z,8620
2018-09-17T08:46:38.278Z,8824
2018-09-17T08:47:48.145Z,9216
2018-09-17T08:48:58.268Z,9416
2018-09-17T08:50:07.653Z,9372
2018-09-17T08:51:17.781Z,9124
2018-09-17T08:52:28.047Z,8980
2018-09-17T08:53:37.896Z,8868
2018-09-17T08:54:48.021Z,8744
2018-09-17T08:55:57.923Z,8744
2018-09-17T08:57:08.050Z,8696
2018-09-17T08:58:17.852Z,8604
2018-09-17T08:59:27.873Z,8588
2018-09-17T09:00:38.004Z,8480
2018-09-17T09:01:47.688Z,8316
2018-09-17T09:02:57.849Z,8248
2018-09-17T09:04:07.603Z,8292
2018-09-17T09:05:17.975Z,8420
2018-09-17T09:06:27.830Z,8540
2018-09-17T09:07:38.027Z,8640
2018-09-17T09:08:48.174Z,8648
2018-09-17T09:09:58.039Z,8556
2018-09-17T09:11:07.928Z,8416
2018-09-17T09:12:18.051Z,8364
2018-09-17T09:13:27.637Z,8384
2018-09-17T09:14:37.762Z,8560
2018-09-17T09:15:47.891Z,8708
2018-09-17T09:16:57.473Z,8772
2018-09-17T09:18:07.322Z,8828
2018-09-17T09:19:16.902Z,8816
2018-09-17T09:20:26.206Z,8812
2018-09-17T09:21:35.796Z,8732
2018-09-17T09:22:45.649Z,8696
2018-09-17T09:23:55.511Z,8776
2018-09-17T09:25:05.369Z,8936
2018-09-17T09:26:15.697Z,9152
2018-09-17T09:27:25.690Z,9412
2018-09-17T09:28:35.814Z,9528
2018-09-17T09:29:45.668Z,9468
2018-09-17T09:30:55.773Z,9412
2018-09-17T09:32:05.369Z,9328
2018-09-17T09:33:15.506Z,9272
2018-09-17T09:34:24.807Z,9136
2018-09-17T09:35:34.392Z,9156
2018-09-17T09:36:44.006Z,9028
2018-09-17T09:37:53.867Z,8836
2018-09-17T09:39:03.731Z,8648
2018-09-17T09:40:13.867Z,8440
2018-09-17T09:41:23.727Z,8264
2018-09-17T09:42:33.784Z,8152
2018-09-17T09:43:43.917Z,8260
2018-09-17T09:44:54.049Z,8408
2018-09-17T09:46:03.905Z,8384
2018-09-17T09:47:13.764Z,8280
2018-09-17T09:48:23.626Z,8240
2018-09-17T09:49:33.760Z,8308
2018-09-17T09:50:43.909Z,8464
2018-09-17T09:51:53.773Z,8564
2018-09-17T09:53:03.913Z,8656
2018-09-17T09:54:13.770Z,8752
2018-09-17T09:55:23.898Z,8716
2018-09-17T09:56:34.041Z,8620
2018-09-17T09:57:44.175Z,8596
2018-09-17T09:58:54.042Z,8692
2018-09-17T10:00:03.909Z,8724
2018-09-17T10:01:13.775Z,8796
2018-09-17T10:02:23.918Z,8864
2018-09-17T10:03:34.051Z,8920
2018-09-17T10:04:43.912Z,8864
2018-09-17T10:05:53.494Z,8804
2018-09-17T10:07:03.356Z,8784
2018-09-17T10:08:12.940Z,8764
2018-09-17T10:09:22.523Z,8728
2018-09-17T10:10:32.104Z,8728
2018-09-17T10:11:42.641Z,8836
2018-09-17T10:12:52.893Z,8900
2018-09-17T10:14:03.030Z,8724
2018-09-17T10:15:13.165Z,8676
2018-09-17T10:16:23.027Z,8632
2018-09-17T10:17:32.882Z,8584
2018-09-17T10:18:43.023Z,8628
2018-09-17T10:19:53.157Z,8656
2018-09-17T10:21:03.016Z,8716
2018-09-17T10:22:13.155Z,8804
2018-09-17T10:23:23.351Z,8880
2018-09-17T10:24:32.941Z,8992
2018-09-17T10:25:42.801Z,9128
2018-09-17T10:26:52.936Z,9192
2018-09-17T10:28:02.795Z,9152
2018-09-17T10:29:12.923Z,9148
2018-09-17T10:30:23.055Z,9200
2018-09-17T10:31:32.936Z,9348
2018-09-17T10:32:42.809Z,9344
2018-09-17T10:33:52.674Z,9032
2018-09-17T10:35:02.589Z,8824
2018-09-17T10:36:11.911Z,8936
2018-09-17T10:37:22.043Z,9052
2018-09-17T10:38:31.900Z,9132
2018-09-17T10:39:41.881Z,9116
2018-09-17T10:40:51.742Z,9064
2018-09-17T10:42:01.896Z,9152
2018-09-17T10:43:11.482Z,9484
2018-09-17T10:44:21.623Z,9872
2018-09-17T10:45:31.766Z,10256
2018-09-17T10:46:41.627Z,10580
2018-09-17T10:47:51.769Z,10844
2018-09-17T10:49:01.354Z,11108
2018-09-17T10:50:11.221Z,11204
2018-09-17T10:51:21.139Z,11240
2018-09-17T10:52:30.963Z,11284
2018-09-17T10:53:40.547Z,11216
2018-09-17T10:54:50.130Z,11216
2018-09-17T10:55:59.988Z,11380
2018-09-17T10:57:09.894Z,11616
2018-09-17T10:58:20.155Z,11640
2018-09-17T10:59:30.018Z,11460
2018-09-17T11:00:40.157Z,11220
2018-09-17T11:01:50.295Z,11148
2018-09-17T11:03:00.430Z,11420
2018-09-17T11:04:10.299Z,11876
2018-09-17T11:05:20.433Z,12256
2018-09-17T11:06:30.017Z,12560
2018-09-17T11:07:39.875Z,12240
2018-09-17T11:08:49.522Z,11524
2018-09-17T11:09:59.662Z,11396
2018-09-17T11:11:09.800Z,11608
2018-09-17T11:12:19.656Z,11680
2018-09-17T11:13:29.791Z,11436
2018-09-17T11:14:39.657Z,11092
2018-09-17T11:15:49.516Z,10372
2018-09-17T11:16:59.377Z,9880
2018-09-17T11:18:08.965Z,9584
2018-09-17T11:19:19.101Z,9376
2018-09-17T11:20:29.238Z,9444
2018-09-17T11:21:39.099Z,9560
2018-09-17T11:22:48.689Z,9652
2018-09-17T11:23:58.832Z,9908
2018-09-17T11:25:08.845Z,10124
2018-09-17T11:26:19.194Z,10216
2018-09-17T11:27:29.377Z,10244
2018-09-17T11:28:39.238Z,9912
2018-09-17T11:29:48.825Z,9612
2018-09-17T11:30:58.136Z,9228
2018-09-17T11:32:07.997Z,8740
2018-09-17T11:33:18.131Z,8536
2018-09-17T11:34:28.261Z,8568
2018-09-17T11:35:38.394Z,8600
2018-09-17T11:36:48.532Z,8732
2018-09-17T11:37:58.395Z,9180
2018-09-17T11:39:08.527Z,9676
2018-09-17T11:40:18.107Z,9680
2018-09-17T11:41:27.988Z,10020
2018-09-17T11:42:37.849Z,9864
2018-09-17T11:43:47.707Z,10000
2018-09-17T11:44:57.894Z,10132
2018-09-17T11:46:08.091Z,10888
2018-09-17T11:47:18.223Z,11348
2018-09-17T11:48:28.298Z,11236
2018-09-17T11:49:38.154Z,16480
2018-09-17T11:50:48.062Z,15240
2018-09-17T11:51:57.919Z,10392
2018-09-17T11:53:08.128Z,8948
2018-09-17T11:54:18.322Z,8816
2018-09-17T11:55:28.452Z,8868
2018-09-17T11:56:38.373Z,9120
2018-09-17T11:57:47.412Z,9420
2018-09-17T11:58:56.995Z,9780
2018-09-17T12:00:06.029Z,9880
2018-09-17T12:01:16.163Z,9992
2018-09-17T12:02:25.574Z,9636
2018-09-17T12:03:35.713Z,9820
2018-09-17T12:04:45.850Z,9516
2018-09-17T12:05:55.981Z,9268
2018-09-17T12:07:06.116Z,9288
2018-09-17T12:08:16.326Z,9364
2018-09-17T12:09:26.809Z,9248
2018-09-17T12:10:36.393Z,9308
2018-09-17T12:11:46.260Z,9488
2018-09-17T12:12:56.394Z,9472
2018-09-17T12:14:06.310Z,9384
2018-09-17T12:15:16.167Z,9280
2018-09-17T12:16:26.303Z,9168
2018-09-17T12:17:35.888Z,9152
2018-09-17T12:18:45.474Z,8956
2018-09-17T12:19:55.651Z,8916
2018-09-17T12:21:05.784Z,8896
2018-09-17T12:22:15.368Z,8872
2018-09-17T12:23:25.228Z,8968
2018-09-17T12:24:35.371Z,9112
2018-09-17T12:25:45.309Z,9336
2018-09-17T12:26:55.187Z,9472
2018-09-17T12:28:04.812Z,9444
2018-09-17T12:29:14.395Z,9452
2018-09-17T12:30:24.254Z,9592
2018-09-17T12:31:34.441Z,9984
2018-09-17T12:32:44.308Z,10280
2018-09-17T12:33:54.656Z,10520
2018-09-17T12:35:05.018Z,10896
2018-09-17T12:36:15.150Z,11756
2018-09-17T12:37:25.065Z,12180
2018-09-17T12:38:35.194Z,12344
2018-09-17T12:39:45.060Z,12684
2018-09-17T12:40:54.919Z,13512
2018-09-17T12:42:04.777Z,14036
2018-09-17T12:43:14.964Z,14664
2018-09-17T12:44:25.102Z,15244
2018-09-17T12:45:34.411Z,16032
2018-09-17T12:46:44.002Z,17056
2018-09-17T12:47:53.595Z,18048
2018-09-17T12:49:03.519Z,17152
2018-09-17T12:50:13.381Z,15640
2018-09-17T12:51:23.516Z,14656
2018-09-17T12:52:33.648Z,13672
2018-09-17T12:53:43.791Z,13464
2018-09-17T12:54:53.733Z,13488
2018-09-17T12:56:03.899Z,13260
2018-09-17T12:57:14.240Z,12892
2018-09-17T12:58:24.192Z,12520
2018-09-17T12:59:34.051Z,13152
2018-09-17T13:00:44.238Z,13484
2018-09-17T13:01:54.096Z,13536
2018-09-17T13:03:03.684Z,13556
2018-09-17T13:04:13.543Z,13956
2018-09-17T13:05:23.409Z,13824
2018-09-17T13:06:33.606Z,14232
2018-09-17T13:07:43.745Z,14196
2018-09-17T13:08:53.885Z,13908
2018-09-17T13:10:04.029Z,13992
2018-09-17T13:11:13.892Z,14104
2018-09-17T13:12:23.798Z,14880
2018-09-17T13:13:33.664Z,15588
2018-09-17T13:14:43.679Z,15920
2018-09-17T13:15:53.268Z,15324
2018-09-17T13:17:03.471Z,15428
2018-09-17T13:18:13.668Z,15568
2018-09-17T13:19:23.536Z,15576
2018-09-17T13:20:33.443Z,15136
2018-09-17T13:21:43.313Z,14864
2018-09-17T13:22:52.898Z,14576
2018-09-17T13:24:03.081Z,14292
2018-09-17T13:25:12.946Z,14004
2018-09-17T13:26:23.081Z,14056
2018-09-17T13:27:33.216Z,14724
2018-09-17T13:28:43.078Z,17216
2018-09-17T13:29:52.990Z,15544
2018-09-17T13:31:03.137Z,17568
2018-09-17T13:32:13.379Z,15172
2018-09-17T13:33:23.286Z,14224
2018-09-17T13:34:32.874Z,14036
2018-09-17T13:35:42.790Z,15536
2018-09-17T13:36:52.390Z,15936
2018-09-17T13:38:01.971Z,16128
2018-09-17T13:39:11.839Z,17568
2018-09-17T13:40:21.713Z,17984
2018-09-17T13:41:31.905Z,17216
2018-09-17T13:42:42.194Z,16192
2018-09-17T13:43:52.371Z,15552
2018-09-17T13:45:02.563Z,14876
2018-09-17T13:46:12.745Z,14380
2018-09-17T13:47:22.422Z,14180
2018-09-17T13:48:32.669Z,14432
2018-09-17T13:49:42.645Z,14768
2018-09-17T13:50:52.558Z,14592
2018-09-17T13:52:02.469Z,14176
2018-09-17T13:53:12.634Z,13988
2018-09-17T13:54:22.229Z,14152
2018-09-17T13:55:32.438Z,13780
2018-09-17T13:56:42.636Z,13400
2018-09-17T13:57:52.804Z,12808
2018-09-17T13:59:02.184Z,12404
2018-09-17T14:00:12.124Z,12320
2018-09-17T14:01:21.994Z,12320
2018-09-17T14:02:32.158Z,12260
2018-09-17T14:03:42.385Z,12356
2018-09-17T14:04:52.600Z,12464
2018-09-17T14:06:02.501Z,13124
2018-09-17T14:07:12.376Z,13756
2018-09-17T14:08:22.511Z,13284
2018-09-17T14:09:32.378Z,12404
2018-09-17T14:10:42.613Z,11848
2018-09-17T14:11:52.796Z,12080
2018-09-17T14:13:02.469Z,12556
2018-09-17T14:14:12.084Z,13256
2018-09-17T14:15:22.304Z,14032
2018-09-17T14:16:32.252Z,14376
2018-09-17T14:17:42.177Z,14384
2018-09-17T14:18:52.330Z,15660
2018-09-17T14:20:01.653Z,16256
2018-09-17T14:21:11.793Z,16160
2018-09-17T14:22:22.040Z,15412
2018-09-17T14:23:32.222Z,13872
2018-09-17T14:24:42.087Z,13312
2018-09-17T14:25:52.292Z,12828
2018-09-17T14:27:01.988Z,13056
2018-09-17T14:28:11.950Z,12792
2018-09-17T14:29:21.845Z,12268
2018-09-17T14:30:31.715Z,11892
2018-09-17T14:31:41.882Z,11572
2018-09-17T14:32:52.395Z,11204
2018-09-17T14:34:02.828Z,11372
2018-09-17T14:35:12.790Z,11680
2018-09-17T14:36:23.118Z,12216
2018-09-17T14:37:33.393Z,12532
2018-09-17T14:38:43.028Z,12460
2018-09-17T14:39:52.924Z,12636
2018-09-17T14:41:03.284Z,12424
2018-09-17T14:42:13.150Z,12072
2018-09-17T14:43:22.787Z,11252
2018-09-17T14:44:32.825Z,10784
2018-09-17T14:45:43.023Z,10616
2018-09-17T14:46:53.177Z,10360
2018-09-17T14:48:02.796Z,10036
2018-09-17T14:49:12.739Z,9604
2018-09-17T14:50:22.928Z,9412
2018-09-17T14:51:32.862Z,9128
2018-09-17T14:52:43.065Z,9328
2018-09-17T14:53:53.076Z,9616
2018-09-17T14:55:03.354Z,9644
2018-09-17T14:56:12.716Z,9352
2018-09-17T14:57:22.950Z,9576
2018-09-17T14:58:33.556Z,12756
2018-09-17T14:59:43.488Z,24256
2018-09-17T15:00:53.691Z,23456
2018-09-17T15:02:03.347Z,10304
2018-09-17T15:03:13.590Z,10668
2018-09-17T15:04:24.424Z,13564
2018-09-17T15:05:34.617Z,23232
2018-09-17T15:06:44.773Z,19200
2018-09-17T15:07:55.125Z,31168
2018-09-17T15:09:05.535Z,30016
2018-09-17T15:10:16.199Z,27168
2018-09-17T15:11:26.607Z,26304
2018-09-17T15:12:36.757Z,26848
2018-09-17T15:13:46.389Z,18656
2018-09-17T15:14:56.375Z,15712
2018-09-17T15:16:06.529Z,12528
2018-09-17T15:17:16.526Z,11948
2018-09-17T15:18:26.702Z,10156
2018-09-17T15:19:36.923Z,9672
2018-09-17T15:20:47.184Z,9356
2018-09-17T15:21:57.099Z,9408
2018-09-17T15:23:07.325Z,9204
2018-09-17T15:24:17.471Z,8996
2018-09-17T15:25:27.394Z,8936
2018-09-17T15:26:37.467Z,8796
2018-09-17T15:27:47.643Z,8628
2018-09-17T15:28:57.565Z,8680
2018-09-17T15:30:06.895Z,8828
2018-09-17T15:31:17.541Z,8700
2018-09-17T15:32:28.721Z,10228
2018-09-17T15:33:39.217Z,8600
2018-09-17T15:34:48.842Z,8368
2018-09-17T15:35:58.979Z,8152
2018-09-17T15:37:08.897Z,8204
2018-09-17T15:38:19.255Z,8416
2018-09-17T15:39:29.733Z,8720
2018-09-17T15:40:40.324Z,8744
2018-09-17T15:41:50.483Z,8272
2018-09-17T15:43:00.677Z,7224
2018-09-17T15:44:11.206Z,7464
2018-09-17T15:45:21.618Z,7544
2018-09-17T15:46:31.755Z,7568
2018-09-17T15:47:41.895Z,6856
2018-09-17T15:48:51.767Z,6148
2018-09-17T15:50:02.242Z,5800
2018-09-17T15:51:11.857Z,5988
2018-09-17T15:52:22.553Z,6240
2018-09-17T15:53:32.750Z,6384